createdAt,value
2023-03-21T00:03:59.443Z,1003
2023-03-21T00:14:05.721Z,1002.9
2023-03-21T00:24:11.916Z,1002.9
2023-03-21T00:34:18.080Z,1002.8
2023-03-21T00:44:24.154Z,1002.7
2023-03-21T00:54:30.361Z,1002.6
2023-03-21T01:04:35.629Z,1002.5
2023-03-21T01:14:41.842Z,1002.5
2023-03-21T01:24:48.031Z,1002.4
2023-03-21T01:34:54.233Z,1002.4
2023-03-21T01:45:00.450Z,1002.3
2023-03-21T01:55:06.649Z,1002.2
2023-03-21T02:05:12.852Z,1002.2
2023-03-21T02:15:19.058Z,1002.1
2023-03-21T02:25:25.254Z,1002
2023-03-21T02:35:31.483Z,1002
2023-03-21T02:45:37.670Z,1001.8
2023-03-21T02:55:43.891Z,1001.8
2023-03-21T03:05:50.097Z,1001.8
2023-03-21T03:15:55.353Z,1001.8
2023-03-21T03:26:01.551Z,1001.8
2023-03-21T03:36:07.757Z,1001.7
2023-03-21T03:46:13.962Z,1001.6
2023-03-21T03:56:20.166Z,1001.6
2023-03-21T04:06:26.373Z,1001.6
2023-03-21T04:16:32.577Z,1001.6
2023-03-21T04:26:38.791Z,1001.5
2023-03-21T04:36:44.986Z,1001.5
2023-03-21T04:46:51.206Z,1001.4
2023-03-21T04:56:57.395Z,1001.5
2023-03-21T05:07:03.632Z,1001.5
2023-03-21T05:17:09.812Z,1001.5
2023-03-21T05:27:15.054Z,1001.5
2023-03-21T05:37:21.282Z,1001.4
2023-03-21T05:47:27.468Z,1001.4
2023-03-21T05:57:33.694Z,1001.3
2023-03-21T06:07:39.894Z,1001.4
2023-03-21T06:17:46.104Z,1001.4
2023-03-21T06:27:52.319Z,1001.5
2023-03-21T06:37:58.513Z,1001.5
2023-03-21T06:48:04.736Z,1001.4
2023-03-21T06:58:10.927Z,1001.4
2023-03-21T07:08:17.110Z,1001.4
2023-03-21T07:18:23.414Z,1001.5
2023-03-21T07:28:29.600Z,1001.6
2023-03-21T07:38:35.743Z,1001.6
2023-03-21T07:48:41.013Z,1001.6
2023-03-21T07:58:47.198Z,1001.6
2023-03-21T08:08:53.408Z,1001.6
2023-03-21T08:18:59.705Z,1001.5
2023-03-21T08:29:05.822Z,1001.5
2023-03-21T08:39:12.199Z,1001.5
2023-03-21T08:49:18.252Z,1001.5
2023-03-21T08:59:24.451Z,1001.6
2023-03-21T09:09:30.636Z,1001.5
2023-03-21T09:19:36.862Z,1001.5
2023-03-21T09:29:43.061Z,1001.5
2023-03-21T09:39:49.284Z,1001.5
2023-03-21T09:49:55.488Z,1001.5
2023-03-21T10:00:00.740Z,1001.5
2023-03-21T10:10:06.918Z,1001.5
2023-03-21T10:20:13.124Z,1001.4
2023-03-21T10:30:19.460Z,1001.4
2023-03-21T10:40:25.694Z,1001.4
2023-03-21T10:50:31.770Z,1001.4
2023-03-21T11:00:38.065Z,1001.5
2023-03-21T11:10:44.235Z,1001.5
2023-03-21T11:20:50.508Z,1001.4
2023-03-21T11:30:56.574Z,1001.4
2023-03-21T11:41:02.994Z,1001.4
2023-03-21T11:51:08.968Z,1001.3
2023-03-21T12:01:15.198Z,1001.2
2023-03-21T12:11:20.440Z,1001.1
2023-03-21T12:21:26.642Z,1001
2023-03-21T12:31:32.885Z,1000.8
2023-03-21T12:41:39.210Z,1000.7
2023-03-21T12:51:45.260Z,1000.5
2023-03-21T13:11:57.750Z,1000.4
2023-03-21T13:22:03.976Z,1000.3
2023-03-21T13:32:10.193Z,1000.2
2023-03-21T13:42:16.433Z,1000.3
2023-03-21T13:52:22.504Z,1000.1
2023-03-21T14:02:28.756Z,1000
2023-03-21T14:12:35.056Z,999.9
2023-03-21T14:22:41.122Z,999.8
2023-03-21T14:32:46.371Z,999.6
2023-03-21T14:42:52.727Z,999.6
2023-03-21T14:52:58.899Z,999.4
2023-03-21T15:03:04.998Z,999.5
2023-03-21T15:13:11.299Z,999.4
2023-03-21T15:23:17.500Z,999.5
2023-03-21T15:33:23.609Z,999.2
2023-03-21T15:43:29.826Z,999.1
2023-03-21T15:53:36.319Z,999.1
2023-03-21T16:03:42.377Z,999.2
2023-03-21T16:13:48.637Z,999.1
2023-03-21T16:23:54.822Z,998.9
2023-03-21T16:34:00.985Z,999
2023-03-21T16:44:06.278Z,998.9
2023-03-21T16:54:12.372Z,998.9
2023-03-21T17:04:18.555Z,998.9
2023-03-21T17:14:24.836Z,998.7
2023-03-21T17:24:31.075Z,998.6
2023-03-21T17:34:37.209Z,998.6
2023-03-21T17:44:43.739Z,998.5
2023-03-21T17:54:49.736Z,998.6
2023-03-21T18:04:55.820Z,998.7
2023-03-21T18:15:02.131Z,998.8
2023-03-21T18:25:08.208Z,998.8
2023-03-21T18:35:14.680Z,998.8
2023-03-21T18:45:20.717Z,998.9
2023-03-21T18:55:26.001Z,999
2023-03-21T19:05:32.154Z,999
2023-03-21T19:15:38.339Z,998.9
2023-03-21T19:25:44.521Z,998.8
2023-03-21T19:35:50.767Z,998.8
2023-03-21T19:45:56.959Z,998.7
2023-03-21T19:56:03.093Z,998.9
2023-03-21T20:06:09.278Z,998.8
2023-03-21T20:16:15.479Z,998.9
2023-03-21T20:26:21.798Z,999
2023-03-21T20:36:27.966Z,998.9
2023-03-21T20:46:34.095Z,998.8
2023-03-21T20:56:39.418Z,998.7
2023-03-21T21:06:45.591Z,998.7
2023-03-21T21:16:51.755Z,998.6
2023-03-21T21:26:58.011Z,998.7
2023-03-21T21:37:04.178Z,998.7
2023-03-21T21:47:10.390Z,998.7
2023-03-21T21:57:16.596Z,998.5
2023-03-21T22:07:22.882Z,998.5
2023-03-21T22:17:29.121Z,998.4
2023-03-21T22:27:35.462Z,998.3
2023-03-21T22:37:41.621Z,998.3
2023-03-21T22:47:47.681Z,998.4
2023-03-21T22:57:54.071Z,998.3
2023-03-21T23:07:59.180Z,998.3
2023-03-21T23:18:05.393Z,998.3
2023-03-21T23:28:11.609Z,998.2
2023-03-21T23:38:17.788Z,998.3
2023-03-21T23:48:23.988Z,998.2
2023-03-21T23:58:30.194Z,998.2
